createdAt,value
2018-02-20T00:02:15.209Z,8.20
2018-02-20T00:04:41.684Z,9.13
2018-02-20T00:07:08.785Z,7.47
2018-02-20T00:09:35.134Z,6.80
2018-02-20T00:12:01.511Z,9.88
2018-02-20T00:14:27.879Z,8.70
2018-02-20T00:16:54.289Z,6.72
2018-02-20T00:19:20.657Z,6.40
2018-02-20T00:21:47.053Z,8.20
2018-02-20T00:24:13.429Z,7.80
2018-02-20T00:26:39.809Z,6.55
2018-02-20T00:29:06.162Z,6.97
2018-02-20T00:31:32.518Z,8.90
2018-02-20T00:33:58.921Z,7.57
2018-02-20T00:36:25.290Z,6.85
2018-02-20T00:38:51.665Z,9.85
2018-02-20T00:41:18.761Z,14.48
2018-02-20T00:43:45.126Z,11.23
2018-02-20T00:46:12.241Z,6.45
2018-02-20T00:48:39.483Z,6.62
2018-02-20T00:51:05.862Z,9.82
2018-02-20T00:53:33.011Z,8.23
2018-02-20T00:56:00.126Z,6.10
2018-02-20T00:58:26.533Z,5.72
2018-02-20T01:00:54.431Z,10.60
2018-02-20T01:03:20.815Z,8.52
2018-02-20T01:05:47.990Z,15.23
2018-02-20T01:08:14.382Z,5.93
2018-02-20T01:10:40.984Z,8.38
2018-02-20T01:13:07.362Z,9.23
2018-02-20T01:15:34.454Z,6.22
2018-02-20T01:18:00.841Z,11.73
2018-02-20T01:20:27.950Z,7.85
2018-02-20T01:22:54.359Z,7.97
2018-02-20T01:25:20.733Z,9.00
2018-02-20T01:27:47.863Z,8.00
2018-02-20T01:30:14.266Z,7.22
2018-02-20T01:32:40.666Z,8.18
2018-02-20T01:35:07.826Z,9.48
2018-02-20T01:37:35.975Z,8.23
2018-02-20T01:40:02.409Z,7.72
2018-02-20T01:42:28.799Z,8.75
2018-02-20T01:44:55.198Z,7.68
2018-02-20T01:47:22.350Z,6.20
2018-02-20T01:49:49.441Z,8.90
2018-02-20T01:52:15.807Z,6.97
2018-02-20T01:54:42.177Z,15.07
2018-02-20T01:57:08.547Z,7.37
2018-02-20T01:59:34.922Z,6.00
2018-02-20T02:02:01.290Z,6.72
2018-02-20T02:04:27.687Z,6.85
2018-02-20T02:06:54.183Z,7.75
2018-02-20T02:09:20.683Z,6.43
2018-02-20T02:11:47.176Z,11.12
2018-02-20T02:14:14.395Z,6.70
2018-02-20T02:16:40.851Z,13.95
2018-02-20T02:19:07.459Z,6.65
2018-02-20T02:21:34.115Z,17.65
2018-02-20T02:24:00.683Z,17.48
2018-02-20T02:26:27.291Z,7.25
2018-02-20T02:28:54.595Z,5.95
2018-02-20T02:31:21.289Z,8.20
2018-02-20T02:33:48.663Z,13.95
2018-02-20T02:36:16.075Z,13.70
2018-02-20T02:38:42.607Z,8.40
2018-02-20T02:41:09.274Z,12.00
2018-02-20T02:43:39.816Z,6.53
2018-02-20T02:46:07.089Z,5.53
2018-02-20T02:48:33.764Z,11.05
2018-02-20T02:51:00.333Z,6.28
2018-02-20T02:53:26.884Z,10.40
2018-02-20T02:55:54.225Z,9.43
2018-02-20T02:58:21.532Z,9.82
2018-02-20T03:00:48.099Z,7.85
2018-02-20T03:03:15.473Z,6.78
2018-02-20T03:05:42.041Z,7.87
2018-02-20T03:08:08.724Z,11.25
2018-02-20T03:10:35.479Z,7.35
2018-02-20T03:13:02.811Z,5.97
2018-02-20T03:15:29.407Z,13.75
2018-02-20T03:17:55.995Z,5.55
2018-02-20T03:20:22.666Z,6.70
2018-02-20T03:22:49.255Z,9.65
2018-02-20T03:25:15.831Z,5.97
2018-02-20T03:27:43.141Z,6.30
2018-02-20T03:30:09.808Z,9.57
2018-02-20T03:32:36.371Z,7.25
2018-02-20T03:35:02.935Z,6.22
2018-02-20T03:37:29.499Z,8.38
2018-02-20T03:39:56.152Z,8.05
2018-02-20T03:42:22.692Z,11.02
2018-02-20T03:44:49.283Z,9.60
2018-02-20T03:47:15.898Z,16.62
2018-02-20T03:49:43.254Z,5.93
2018-02-20T03:52:10.669Z,6.87
2018-02-20T03:54:39.268Z,8.55
2018-02-20T03:57:05.935Z,7.78
2018-02-20T03:59:33.267Z,7.37
2018-02-20T04:01:59.927Z,7.37
2018-02-20T04:04:26.631Z,6.93
2018-02-20T04:06:53.182Z,7.43
2018-02-20T04:09:19.779Z,9.45
2018-02-20T04:11:46.364Z,10.55
2018-02-20T04:14:12.952Z,5.95
2018-02-20T04:16:39.480Z,7.93
2018-02-20T04:19:06.289Z,8.00
2018-02-20T04:21:33.969Z,6.00
2018-02-20T04:24:01.314Z,8.23
2018-02-20T04:26:28.653Z,5.97
2018-02-20T04:28:55.325Z,10.52
2018-02-20T04:31:22.675Z,6.68
2018-02-20T04:33:50.122Z,11.65
2018-02-20T04:36:16.702Z,10.63
2018-02-20T04:38:43.299Z,5.87
2018-02-20T04:41:10.621Z,5.28
2018-02-20T04:43:37.204Z,5.25
2018-02-20T04:46:04.550Z,8.40
2018-02-20T04:48:31.875Z,5.93
2018-02-20T04:50:58.503Z,7.47
2018-02-20T04:53:25.074Z,13.38
2018-02-20T04:55:52.307Z,9.52
2018-02-20T04:58:18.857Z,8.93
2018-02-20T05:00:45.472Z,11.80
2018-02-20T05:03:12.042Z,7.87
2018-02-20T05:05:39.402Z,15.13
2018-02-20T05:08:06.750Z,11.50
2018-02-20T05:10:33.332Z,6.90
2018-02-20T05:12:59.881Z,7.22
2018-02-20T05:15:26.561Z,6.03
2018-02-20T05:17:53.144Z,9.30
2018-02-20T05:20:19.845Z,6.68
2018-02-20T05:22:47.308Z,10.93
2018-02-20T05:25:14.656Z,10.23
2018-02-20T05:27:42.014Z,7.80
2018-02-20T05:30:09.491Z,8.65
2018-02-20T05:32:36.803Z,9.43
2018-02-20T05:35:03.342Z,8.50
2018-02-20T05:37:29.985Z,8.55
2018-02-20T05:39:56.513Z,8.75
2018-02-20T05:42:23.086Z,6.10
2018-02-20T05:44:50.337Z,7.62
2018-02-20T05:47:17.749Z,7.35
2018-02-20T05:49:44.304Z,5.97
2018-02-20T05:52:10.923Z,6.12
2018-02-20T05:54:37.484Z,5.87
2018-02-20T05:57:04.219Z,6.65
2018-02-20T05:59:30.776Z,8.60
2018-02-20T06:01:57.417Z,13.30
2018-02-20T06:04:24.699Z,7.25
2018-02-20T06:06:51.267Z,7.03
2018-02-20T06:09:17.843Z,8.10
2018-02-20T06:11:44.445Z,7.12
2018-02-20T06:14:10.998Z,6.65
2018-02-20T06:16:37.571Z,5.10
2018-02-20T06:19:25.862Z,19.95
2018-02-20T06:21:52.547Z,10.52
2018-02-20T06:24:19.112Z,5.72
2018-02-20T06:26:45.711Z,8.77
2018-02-20T06:29:12.331Z,7.60
2018-02-20T06:31:38.897Z,17.58
2018-02-20T06:34:05.440Z,7.12
2018-02-20T06:36:33.080Z,7.32
2018-02-20T06:38:59.736Z,10.38
2018-02-20T06:41:26.259Z,6.12
2018-02-20T06:43:52.971Z,9.90
2018-02-20T06:46:23.606Z,6.22
2018-02-20T06:48:50.163Z,10.85
2018-02-20T06:51:16.723Z,6.35
2018-02-20T06:53:44.075Z,5.40
2018-02-20T06:56:10.654Z,5.20
2018-02-20T06:58:37.307Z,10.43
2018-02-20T07:01:03.912Z,9.77
2018-02-20T07:03:30.474Z,8.43
2018-02-20T07:05:57.039Z,7.00
2018-02-20T07:08:23.601Z,7.47
2018-02-20T07:10:50.136Z,7.30
2018-02-20T07:13:17.600Z,9.55
2018-02-20T07:15:44.215Z,9.70
2018-02-20T07:18:10.761Z,7.50
2018-02-20T07:20:38.076Z,7.55
2018-02-20T07:23:04.657Z,11.57
2018-02-20T07:25:31.200Z,7.35
2018-02-20T07:27:58.495Z,11.88
2018-02-20T07:30:25.066Z,7.60
2018-02-20T07:32:51.618Z,8.70
2018-02-20T07:35:18.223Z,8.27
2018-02-20T07:37:44.840Z,10.02
2018-02-20T07:40:11.441Z,6.55
2018-02-20T07:42:38.024Z,8.00
2018-02-20T07:45:05.636Z,11.50
2018-02-20T07:47:32.279Z,7.95
2018-02-20T07:49:58.920Z,8.93
2018-02-20T07:52:25.519Z,14.00
2018-02-20T07:54:52.102Z,9.55
2018-02-20T07:57:19.372Z,9.85
2018-02-20T07:59:46.770Z,13.45
2018-02-20T08:02:13.436Z,13.35
2018-02-20T08:04:40.870Z,9.27
2018-02-20T08:07:07.440Z,8.43
2018-02-20T08:09:34.017Z,7.93
2018-02-20T08:12:00.593Z,7.87
2018-02-20T08:14:27.170Z,10.35
2018-02-20T08:16:54.463Z,9.60
2018-02-20T08:19:21.145Z,13.45
2018-02-20T08:21:47.812Z,9.40
2018-02-20T08:24:14.373Z,11.35
2018-02-20T08:26:40.971Z,9.93
2018-02-20T08:29:08.331Z,9.18
2018-02-20T08:31:36.086Z,8.82
2018-02-20T08:34:02.745Z,14.27
2018-02-20T08:36:29.519Z,9.43
2018-02-20T08:38:56.160Z,15.82
2018-02-20T08:41:22.699Z,16.17
2018-02-20T08:43:49.376Z,13.57
2018-02-20T08:46:15.950Z,12.73
2018-02-20T08:48:42.503Z,10.07
2018-02-20T08:51:09.139Z,9.00
2018-02-20T08:53:35.698Z,10.30
2018-02-20T08:56:02.336Z,9.00
2018-02-20T08:58:28.969Z,16.23
2018-02-20T09:00:55.650Z,11.63
2018-02-20T09:03:22.982Z,11.80
2018-02-20T09:05:49.537Z,12.13
2018-02-20T09:08:16.802Z,9.85
2018-02-20T09:10:44.078Z,13.77
2018-02-20T09:13:10.910Z,15.50
2018-02-20T09:15:37.493Z,18.00
2018-02-20T09:18:04.143Z,11.18
2018-02-20T09:20:30.801Z,12.93
2018-02-20T09:22:58.831Z,15.68
2018-02-20T09:25:25.489Z,17.25
2018-02-20T09:27:52.106Z,18.75
2018-02-20T09:30:18.659Z,11.05
2018-02-20T09:32:45.190Z,21.05
2018-02-20T09:35:11.762Z,11.57
2018-02-20T09:37:38.398Z,12.45
2018-02-20T09:40:04.932Z,13.57
2018-02-20T09:42:31.511Z,14.10
2018-02-20T09:44:58.172Z,9.33
2018-02-20T09:47:24.752Z,10.18
2018-02-20T09:49:51.462Z,9.57
2018-02-20T09:52:18.029Z,12.67
2018-02-20T09:54:44.632Z,13.07
2018-02-20T09:57:11.218Z,11.67
2018-02-20T09:59:38.523Z,11.63
2018-02-20T10:02:05.159Z,14.47
2018-02-20T10:04:31.745Z,16.37
2018-02-20T10:06:59.026Z,15.67
2018-02-20T10:09:25.636Z,19.07
2018-02-20T10:11:52.248Z,15.00
2018-02-20T10:14:20.272Z,13.23
2018-02-20T10:16:46.818Z,12.67
2018-02-20T10:19:13.406Z,13.70
2018-02-20T10:21:39.956Z,11.30
2018-02-20T10:24:07.280Z,13.10
2018-02-20T10:26:33.941Z,12.70
2018-02-20T10:29:01.218Z,14.53
2018-02-20T10:31:27.777Z,12.57
2018-02-20T10:33:54.346Z,17.70
2018-02-20T10:36:20.892Z,17.53
2018-02-20T10:38:47.454Z,14.47
2018-02-20T10:41:14.798Z,13.67
2018-02-20T10:43:41.339Z,15.57
2018-02-20T10:46:07.911Z,12.67
2018-02-20T10:48:34.504Z,21.17
2018-02-20T10:51:01.114Z,13.17
2018-02-20T10:53:27.667Z,17.13
2018-02-20T10:55:54.254Z,16.67
2018-02-20T10:58:20.802Z,20.40
2018-02-20T11:00:47.355Z,12.67
2018-02-20T11:03:14.036Z,24.13
2018-02-20T11:05:40.595Z,16.17
2018-02-20T11:08:07.874Z,19.03
2018-02-20T11:10:34.450Z,16.63
2018-02-20T11:13:03.048Z,12.77
2018-02-20T11:15:29.851Z,20.70
2018-02-20T11:18:00.384Z,16.57
2018-02-20T11:20:27.043Z,16.27
2018-02-20T11:22:53.600Z,18.60
2018-02-20T11:25:20.203Z,12.37
2018-02-20T11:27:46.844Z,14.23
2018-02-20T11:30:13.404Z,19.53
2018-02-20T11:32:40.011Z,16.23
2018-02-20T11:35:06.548Z,15.90
2018-02-20T11:37:33.204Z,17.80
2018-02-20T11:39:59.796Z,14.83
2018-02-20T11:42:26.332Z,17.50
2018-02-20T11:44:53.611Z,16.40
2018-02-20T11:47:23.266Z,15.13
2018-02-20T11:49:49.831Z,11.80
2018-02-20T11:52:17.463Z,11.83
2018-02-20T11:54:44.303Z,15.93
2018-02-20T11:57:11.615Z,17.67
2018-02-20T11:59:38.147Z,17.17
2018-02-20T12:02:04.721Z,12.80
2018-02-20T12:04:32.038Z,14.20
2018-02-20T12:06:59.029Z,14.80
2018-02-20T12:09:25.550Z,12.07
2018-02-20T12:11:52.103Z,12.57
2018-02-20T12:14:19.459Z,14.50
2018-02-20T12:16:46.166Z,17.37
2018-02-20T12:19:12.623Z,13.13
2018-02-20T12:21:39.060Z,11.27
2018-02-20T12:24:05.494Z,10.23
2018-02-20T12:26:31.919Z,11.87
2018-02-20T12:28:58.396Z,15.37
2018-02-20T12:31:25.685Z,15.63
2018-02-20T12:33:52.200Z,14.23
2018-02-20T12:36:19.693Z,12.10
2018-02-20T12:38:46.218Z,12.50
2018-02-20T12:41:12.691Z,10.83
2018-02-20T12:43:39.170Z,13.30
2018-02-20T12:46:06.356Z,12.37
2018-02-20T12:48:32.785Z,10.60
2018-02-20T12:50:59.224Z,11.63
2018-02-20T12:53:25.682Z,12.57
2018-02-20T12:55:52.133Z,16.07
2018-02-20T12:58:18.583Z,16.27
2018-02-20T13:00:44.997Z,11.83
2018-02-20T13:03:11.430Z,14.00
2018-02-20T13:05:38.637Z,14.13
2018-02-20T13:08:05.068Z,20.50
2018-02-20T13:10:31.479Z,18.00
2018-02-20T13:12:57.953Z,13.87
2018-02-20T13:15:24.422Z,14.30
2018-02-20T13:17:50.840Z,12.37
2018-02-20T13:20:17.287Z,11.87
2018-02-20T13:22:43.688Z,11.53
2018-02-20T13:25:10.120Z,16.60
2018-02-20T13:27:36.575Z,11.17
2018-02-20T13:30:03.319Z,19.73
2018-02-20T13:32:29.757Z,12.67
2018-02-20T13:34:56.210Z,13.20
2018-02-20T13:37:22.625Z,15.37
2018-02-20T13:39:49.077Z,16.17
2018-02-20T13:42:15.528Z,10.40
2018-02-20T13:44:42.704Z,14.57
2018-02-20T13:47:09.117Z,16.83
2018-02-20T13:49:36.314Z,13.07
2018-02-20T13:52:02.740Z,15.67
2018-02-20T13:54:29.261Z,20.30
2018-02-20T13:56:55.836Z,18.87
2018-02-20T13:59:22.265Z,18.37
2018-02-20T14:01:48.717Z,18.53
2018-02-20T14:04:16.645Z,11.50
2018-02-20T14:06:43.085Z,15.20
2018-02-20T14:09:09.648Z,20.25
2018-02-20T14:11:36.845Z,15.23
2018-02-20T14:14:03.296Z,19.07
2018-02-20T14:16:29.719Z,17.67
2018-02-20T14:18:56.176Z,19.15
2018-02-20T14:21:22.620Z,18.35
2018-02-20T14:23:49.088Z,15.32
2018-02-20T14:26:15.607Z,17.10
2018-02-20T14:28:42.096Z,16.13
2018-02-20T14:31:08.513Z,15.75
2018-02-20T14:33:35.693Z,20.10
2018-02-20T14:36:02.117Z,11.63
2018-02-20T14:38:28.516Z,17.20
2018-02-20T14:40:55.085Z,16.10
2018-02-20T14:43:21.529Z,16.62
2018-02-20T14:45:47.944Z,14.70
2018-02-20T14:48:15.256Z,13.90
2018-02-20T14:50:41.665Z,17.10
2018-02-20T14:53:08.109Z,12.80
2018-02-20T14:55:34.558Z,14.77
2018-02-20T14:58:01.014Z,17.17
2018-02-20T15:00:28.244Z,18.30
2018-02-20T15:02:54.696Z,16.08
2018-02-20T15:05:21.134Z,20.27
2018-02-20T15:07:47.582Z,25.12
2018-02-20T15:10:14.187Z,18.27
2018-02-20T15:12:42.110Z,18.93
2018-02-20T15:15:08.548Z,18.30
2018-02-20T15:17:35.235Z,19.97
2018-02-20T15:20:01.762Z,15.18
2018-02-20T15:22:28.223Z,18.60
2018-02-20T15:24:54.694Z,17.15
2018-02-20T15:27:21.128Z,16.15
2018-02-20T15:29:47.585Z,16.45
2018-02-20T15:32:14.192Z,14.93
2018-02-20T15:34:41.362Z,16.60
2018-02-20T15:37:07.808Z,16.62
2018-02-20T15:39:34.322Z,12.43
2018-02-20T15:42:08.619Z,16.58
2018-02-20T15:44:35.062Z,17.42
2018-02-20T15:47:01.509Z,14.40
2018-02-20T15:49:31.877Z,18.62
2018-02-20T15:51:58.356Z,21.52
2018-02-20T15:54:24.806Z,17.42
2018-02-20T15:56:51.241Z,17.60
2018-02-20T15:59:17.731Z,16.00
2018-02-20T16:01:45.641Z,17.53
2018-02-20T16:04:12.097Z,14.53
2018-02-20T16:06:38.554Z,14.00
2018-02-20T16:09:05.756Z,11.00
2018-02-20T16:11:32.184Z,19.40
2018-02-20T16:14:02.258Z,13.47
2018-02-20T16:16:28.708Z,15.40
2018-02-20T16:18:55.154Z,19.07
2018-02-20T16:21:22.358Z,23.23
2018-02-20T16:23:49.045Z,16.70
2018-02-20T16:26:15.454Z,18.33
2018-02-20T16:28:41.906Z,20.37
2018-02-20T16:31:08.365Z,13.75
2018-02-20T16:33:35.536Z,19.55
2018-02-20T16:36:02.118Z,17.00
2018-02-20T16:38:28.564Z,12.10
2018-02-20T16:40:54.980Z,13.37
2018-02-20T16:43:21.436Z,18.55
2018-02-20T16:45:48.711Z,18.27
2018-02-20T16:48:15.177Z,21.83
2018-02-20T16:50:41.645Z,21.67
2018-02-20T16:53:08.111Z,23.30
2018-02-20T16:55:35.348Z,21.23
2018-02-20T16:58:01.797Z,19.77
2018-02-20T17:03:29.298Z,15.80
2018-02-20T17:05:55.763Z,23.38
2018-02-20T17:08:22.226Z,21.75
2018-02-20T17:10:48.977Z,21.33
2018-02-20T17:13:16.158Z,21.70
2018-02-20T17:15:42.614Z,20.35
2018-02-20T17:18:10.868Z,16.70
2018-02-20T17:20:37.306Z,22.15
2018-02-20T17:23:03.795Z,20.55
2018-02-20T17:25:30.287Z,18.05
2018-02-20T17:27:57.776Z,26.90
2018-02-20T17:30:24.239Z,19.35
2018-02-20T17:32:50.746Z,14.77
2018-02-20T17:35:17.508Z,13.95
2018-02-20T17:37:44.677Z,17.37
2018-02-20T17:40:11.898Z,10.82
2018-02-20T17:42:38.532Z,12.85
2018-02-20T17:45:05.097Z,15.18
2018-02-20T17:47:35.599Z,18.92
2018-02-20T17:50:02.363Z,16.42
2018-02-20T17:52:29.085Z,20.05
2018-02-20T17:54:56.372Z,14.65
2018-02-20T17:57:27.554Z,14.93
2018-02-20T17:59:53.992Z,10.88
2018-02-20T18:02:25.894Z,18.35
2018-02-20T18:04:55.186Z,16.35
2018-02-20T18:07:21.671Z,12.02
2018-02-20T18:09:48.182Z,12.43
2018-02-20T18:12:14.743Z,12.20
2018-02-20T18:14:41.424Z,17.45
2018-02-20T18:17:08.276Z,19.70
2018-02-20T18:19:34.753Z,13.40
2018-02-20T18:22:01.292Z,19.83
2018-02-20T18:24:28.537Z,13.20
2018-02-20T18:26:55.845Z,13.07
2018-02-20T18:29:27.048Z,11.55
2018-02-20T18:31:54.523Z,18.05
2018-02-20T18:34:20.941Z,12.68
2018-02-20T18:36:48.114Z,12.68
2018-02-20T18:39:14.589Z,9.88
2018-02-20T18:44:40.926Z,18.65
2018-02-20T18:47:07.394Z,17.27
2018-02-20T18:49:34.593Z,16.75
2018-02-20T18:52:01.050Z,16.98
2018-02-20T18:54:27.513Z,15.57
2018-02-20T18:56:54.718Z,19.95
2018-02-20T18:59:22.169Z,18.80
2018-02-20T19:01:48.622Z,19.40
2018-02-20T19:04:16.069Z,17.73
2018-02-20T19:06:46.424Z,14.30
2018-02-20T19:09:12.842Z,11.95
2018-02-20T19:11:39.347Z,15.50
2018-02-20T19:14:06.798Z,12.88
2018-02-20T19:16:33.232Z,21.70
2018-02-20T19:18:59.761Z,18.15
2018-02-20T19:21:26.292Z,12.23
2018-02-20T19:23:52.768Z,10.60
2018-02-20T19:26:19.223Z,16.37
2018-02-20T19:28:45.671Z,12.57
2018-02-20T19:31:12.133Z,11.65
2018-02-20T19:33:38.565Z,13.13
2018-02-20T19:36:05.017Z,17.65
2018-02-20T19:38:31.466Z,16.70
2018-02-20T19:40:57.908Z,17.85
2018-02-20T19:43:24.354Z,16.87
2018-02-20T19:45:50.797Z,12.20
2018-02-20T19:48:17.366Z,18.62
2018-02-20T19:50:44.525Z,21.80
2018-02-20T19:53:11.029Z,19.67
2018-02-20T19:55:37.479Z,18.10
2018-02-20T19:58:04.675Z,16.73
2018-02-20T20:00:31.114Z,11.95
2018-02-20T20:02:57.544Z,13.32
2018-02-20T20:05:23.961Z,20.40
2018-02-20T20:07:50.405Z,14.63
2018-02-20T20:10:16.861Z,22.15
2018-02-20T20:12:43.386Z,19.67
2018-02-20T20:15:10.502Z,22.10
2018-02-20T20:17:37.680Z,16.50
2018-02-20T20:20:04.136Z,18.15
2018-02-20T20:22:30.576Z,21.37
2018-02-20T20:24:57.045Z,14.82
2018-02-20T20:27:24.244Z,16.00
2018-02-20T20:29:50.686Z,17.60
2018-02-20T20:32:17.119Z,14.23
2018-02-20T20:34:43.547Z,17.10
2018-02-20T20:37:10.102Z,24.05
2018-02-20T20:39:36.520Z,19.67
2018-02-20T20:42:02.984Z,21.60
2018-02-20T20:44:29.416Z,14.98
2018-02-20T20:46:55.830Z,18.37
2018-02-20T20:49:22.304Z,22.00
2018-02-20T20:51:49.456Z,18.23
2018-02-20T20:54:15.878Z,19.48
2018-02-20T20:56:42.617Z,18.12
2018-02-20T20:59:09.882Z,19.33
2018-02-20T21:01:36.717Z,17.33
2018-02-20T21:04:03.176Z,17.95
2018-02-20T21:06:30.358Z,18.55
2018-02-20T21:08:56.798Z,16.58
2018-02-20T21:11:23.211Z,16.73
2018-02-20T21:13:49.649Z,14.63
2018-02-20T21:16:16.222Z,18.08
2018-02-20T21:18:43.670Z,18.80
2018-02-20T21:21:10.098Z,13.35
2018-02-20T21:23:36.576Z,21.92
2018-02-20T21:26:03.744Z,15.85
2018-02-20T21:28:30.200Z,13.25
2018-02-20T21:30:56.601Z,20.40
2018-02-20T21:33:23.769Z,13.95
2018-02-20T21:35:50.228Z,19.75
2018-02-20T21:38:16.671Z,21.25
2018-02-20T21:40:43.092Z,16.80
2018-02-20T21:43:09.552Z,14.18
2018-02-20T21:45:35.956Z,15.77
2018-02-20T21:48:02.387Z,14.45
2018-02-20T21:50:28.810Z,17.60
2018-02-20T21:52:55.257Z,21.27
2018-02-20T21:55:21.672Z,19.23
2018-02-20T21:57:48.850Z,23.77
2018-02-20T22:00:15.569Z,18.17
2018-02-20T22:02:42.878Z,19.25
2018-02-20T22:05:09.297Z,20.20
2018-02-20T22:07:35.745Z,22.42
2018-02-20T22:10:03.255Z,17.35
2018-02-20T22:12:30.445Z,14.70
2018-02-20T22:14:56.883Z,23.17
2018-02-20T22:17:23.361Z,15.68
2018-02-20T22:19:49.810Z,16.77
2018-02-20T22:22:16.257Z,17.30
2018-02-20T22:24:42.769Z,20.12
2018-02-20T22:27:09.232Z,20.80
2018-02-20T22:29:36.642Z,21.87
2018-02-20T22:32:03.077Z,19.98
2018-02-20T22:34:29.538Z,16.23
2018-02-20T22:36:55.966Z,21.73
2018-02-20T22:39:22.444Z,19.98
2018-02-20T22:41:48.893Z,21.17
2018-02-20T22:44:15.340Z,15.38
2018-02-20T22:46:41.775Z,17.60
2018-02-20T22:49:08.219Z,22.80
2018-02-20T22:51:34.636Z,14.45
2018-02-20T22:54:01.054Z,18.77
2018-02-20T22:56:27.469Z,20.83
2018-02-20T22:58:53.909Z,19.33
2018-02-20T23:01:24.149Z,14.95
2018-02-20T23:03:50.603Z,19.98
2018-02-20T23:06:17.035Z,14.25
2018-02-20T23:08:43.466Z,24.00
2018-02-20T23:11:11.341Z,15.45
2018-02-20T23:13:38.526Z,11.93
2018-02-20T23:16:05.002Z,11.93
2018-02-20T23:18:31.508Z,14.77
2018-02-20T23:20:57.945Z,15.98
2018-02-20T23:23:24.367Z,11.63
2018-02-20T23:25:50.786Z,14.35
2018-02-20T23:28:17.356Z,14.20
2018-02-20T23:30:43.973Z,15.45
2018-02-20T23:33:10.443Z,18.50
2018-02-20T23:35:36.849Z,14.87
2018-02-20T23:38:03.286Z,17.77
2018-02-20T23:40:29.707Z,23.33
2018-02-20T23:42:56.840Z,15.13
2018-02-20T23:45:24.045Z,12.35
2018-02-20T23:47:50.488Z,17.45
2018-02-20T23:50:16.930Z,12.45
2018-02-20T23:52:43.386Z,15.23
2018-02-20T23:55:09.830Z,20.25
2018-02-20T23:57:37.016Z,18.23
